Report METAR

 

LIRU - Rome/Urbe (it-Af, Italy
Distance from station: ESE 33km
Dati ricevuti: 23/07/2021 19:50
DATI Obsoleti
Sereno
Sereno
 Vento da SO
Vento: SO 13 km/h
Temperatura: 31°C
P.to Rugiada: 13°C
Umidità: 33%
Barometro: 1013 hPa
Summary: Sereno
Visibility: superiore a 10 km
2021/07/23 17:50 LIRU 231750Z 23007KT 190V260 CAVOK 31/13 Q1013
LIRF - Rome/Fiumicino, Italy
Distance from station: S 36km
Dati ricevuti: 24/07/2021 00:20
Sereno
Sereno
 Vento da ONO
Vento: ONO 6 km/h
Temperatura: 23°C
P.to Rugiada: 22°C
Umidità: 94%
Barometro: 1014 hPa
Summary: Sereno
Visibility: superiore a 10 km
2021/07/23 22:20 LIRF 232220Z 30003KT CAVOK 23/22 Q1014 NOSIG
 
LIRV - Viterbo (it-Mil), Italy
Distance from station: NNO 36km
Dati ricevuti: 23/07/2021 20:55
DATI Obsoleti
Sereno
Sereno
 Vento da S
Vento: S 13 km/h
Temperatura: 26°C
P.to Rugiada: 14°C
Umidità: 48%
Barometro: 1014 hPa
Summary: Sereno
Visibility: superiore a 10 km
2021/07/23 18:55 LIRV 231855Z 19007KT CAVOK 26/14 Q1014
LIRG - Guidonia (it-Afb, Italy
Distance from station: ESE 47km
Dati ricevuti: 23/07/2021 19:55
DATI Obsoleti
Sereno
Sereno
 Vento da SO
Vento: SO 13 km/h
Temperatura: 31°C
P.to Rugiada: 14°C
Umidità: 35%
Barometro: 1013 hPa
Summary: Sereno
Visibility: superiore a 10 km
2021/07/23 17:55 LIRG 231755Z 23007KT CAVOK 31/14 Q1013
 
LIRA - Ciampino(It-Afb/, Italy
Distance from station: SE 48km
Dati ricevuti: 24/07/2021 00:20
Sereno
Sereno
 Vento da SO
Vento: SO 7 km/h
Temperatura: 23°C
P.to Rugiada: 20°C
Umidità: 83%
Barometro: 1015 hPa
Summary: Sereno
Visibility: superiore a 10 km
2021/07/23 22:20 LIRA 232220Z 22004KT CAVOK 23/20 Q1015